sensor_id;sensor_type;location;lat;lon;timestamp;P1;durP1;ratioP1;P2;durP2;ratioP2
67429;SDS011;54298;52.076;5.264;2022-08-19T00:02:59;4.91;;;3.9;;
67429;SDS011;54298;52.076;5.264;2022-08-19T00:04:36;5.6;;;4.1;;
67429;SDS011;54298;52.076;5.264;2022-08-19T00:06:12;6.6;;;3.9;;
67429;SDS011;54298;52.076;5.264;2022-08-19T00:09:26;5.0;;;3.6;;
67429;SDS011;54298;52.076;5.264;2022-08-19T00:11:03;5.2;;;3.3;;
67429;SDS011;54298;52.076;5.264;2022-08-19T00:12:40;5.0;;;3.6;;
67429;SDS011;54298;52.076;5.264;2022-08-19T00:14:18;6.0;;;3.5;;
67429;SDS011;54298;52.076;5.264;2022-08-19T00:17:31;4.2;;;3.3;;
67429;SDS011;54298;52.076;5.264;2022-08-19T00:19:07;4.61;;;3.4;;
67429;SDS011;54298;52.076;5.264;2022-08-19T00:20:45;7.0;;;4.1;;
67429;SDS011;54298;52.076;5.264;2022-08-19T00:23:58;5.2;;;3.7;;
67429;SDS011;54298;52.076;5.264;2022-08-19T00:25:36;6.9;;;4.3;;
67429;SDS011;54298;52.076;5.264;2022-08-19T00:27:12;7.0;;;4.1;;
67429;SDS011;54298;52.076;5.264;2022-08-19T00:30:27;6.6;;;4.41;;
67429;SDS011;54298;52.076;5.264;2022-08-19T00:32:04;5.8;;;4.3;;
67429;SDS011;54298;52.076;5.264;2022-08-19T00:33:41;5.9;;;3.8;;
67429;SDS011;54298;52.076;5.264;2022-08-19T00:35:17;5.2;;;3.6;;
67429;SDS011;54298;52.076;5.264;2022-08-19T00:38:31;5.6;;;3.8;;
67429;SDS011;54298;52.076;5.264;2022-08-19T00:40:11;4.1;;;3.6;;
67429;SDS011;54298;52.076;5.264;2022-08-19T00:41:49;4.1;;;3.5;;
67429;SDS011;54298;52.076;5.264;2022-08-19T00:45:05;5.2;;;3.3;;
67429;SDS011;54298;52.076;5.264;2022-08-19T00:46:48;6.5;;;3.9;;
67429;SDS011;54298;52.076;5.264;2022-08-19T00:48:26;5.3;;;3.3;;
67429;SDS011;54298;52.076;5.264;2022-08-19T00:50:02;5.7;;;3.2;;
67429;SDS011;54298;52.076;5.264;2022-08-19T00:53:21;6.4;;;3.6;;
67429;SDS011;54298;52.076;5.264;2022-08-19T00:55:04;5.2;;;3.7;;
67429;SDS011;54298;52.076;5.264;2022-08-19T00:56:44;6.5;;;4.41;;
67429;SDS011;54298;52.076;5.264;2022-08-19T00:58:22;6.8;;;3.8;;
67429;SDS011;54298;52.076;5.264;2022-08-19T01:01:46;7.4;;;3.5;;
67429;SDS011;54298;52.076;5.264;2022-08-19T01:03:23;6.5;;;3.6;;
67429;SDS011;54298;52.076;5.264;2022-08-19T01:05:00;4.91;;;3.1;;
67429;SDS011;54298;52.076;5.264;2022-08-19T01:06:41;4.8;;;3.6;;
67429;SDS011;54298;52.076;5.264;2022-08-19T01:09:55;5.7;;;3.6;;
67429;SDS011;54298;52.076;5.264;2022-08-19T01:11:33;5.4;;;4.1;;
67429;SDS011;54298;52.076;5.264;2022-08-19T01:13:19;5.8;;;3.5;;
67429;SDS011;54298;52.076;5.264;2022-08-19T01:14:59;4.3;;;3.3;;
67429;SDS011;54298;52.076;5.264;2022-08-19T01:18:15;7.2;;;3.5;;
67429;SDS011;54298;52.076;5.264;2022-08-19T01:19:54;5.11;;;3.2;;
67429;SDS011;54298;52.076;5.264;2022-08-19T01:21:31;4.1;;;3.5;;
67429;SDS011;54298;52.076;5.264;2022-08-19T01:23:20;6.2;;;3.5;;
67429;SDS011;54298;52.076;5.264;2022-08-19T01:26:34;5.11;;;3.3;;
67429;SDS011;54298;52.076;5.264;2022-08-19T01:28:16;3.6;;;2.9;;
67429;SDS011;54298;52.076;5.264;2022-08-19T01:29:56;5.8;;;3.2;;
67429;SDS011;54298;52.076;5.264;2022-08-19T01:33:07;5.3;;;3.0;;
67429;SDS011;54298;52.076;5.264;2022-08-19T01:34:46;5.4;;;3.6;;
67429;SDS011;54298;52.076;5.264;2022-08-19T01:36:24;6.4;;;3.7;;
67429;SDS011;54298;52.076;5.264;2022-08-19T01:38:08;4.7;;;3.5;;
67429;SDS011;54298;52.076;5.264;2022-08-19T01:41:23;4.3;;;3.3;;
67429;SDS011;54298;52.076;5.264;2022-08-19T01:43:00;7.2;;;3.4;;
67429;SDS011;54298;52.076;5.264;2022-08-19T01:44:37;6.2;;;3.7;;
67429;SDS011;54298;52.076;5.264;2022-08-19T01:47:52;3.9;;;3.3;;
67429;SDS011;54298;52.076;5.264;2022-08-19T01:49:29;5.8;;;3.4;;
67429;SDS011;54298;52.076;5.264;2022-08-19T01:51:06;5.2;;;3.5;;
67429;SDS011;54298;52.076;5.264;2022-08-19T01:52:45;7.7;;;3.8;;
67429;SDS011;54298;52.076;5.264;2022-08-19T01:56:00;4.2;;;3.0;;
67429;SDS011;54298;52.076;5.264;2022-08-19T01:57:39;6.1;;;3.5;;
67429;SDS011;54298;52.076;5.264;2022-08-19T01:59:20;5.6;;;3.4;;
67429;SDS011;54298;52.076;5.264;2022-08-19T02:01:00;5.0;;;3.4;;
67429;SDS011;54298;52.076;5.264;2022-08-19T02:04:12;5.7;;;3.4;;
67429;SDS011;54298;52.076;5.264;2022-08-19T02:05:54;5.8;;;3.5;;
67429;SDS011;54298;52.076;5.264;2022-08-19T02:07:32;7.9;;;4.1;;
67429;SDS011;54298;52.076;5.264;2022-08-19T02:10:46;8.4;;;3.6;;
67429;SDS011;54298;52.076;5.264;2022-08-19T02:12:22;8.9;;;3.6;;
67429;SDS011;54298;52.076;5.264;2022-08-19T02:13:58;6.7;;;3.1;;
67429;SDS011;54298;52.076;5.264;2022-08-19T02:15:36;6.4;;;3.4;;
67429;SDS011;54298;52.076;5.264;2022-08-19T02:18:50;10.21;;;3.8;;
67429;SDS011;54298;52.076;5.264;2022-08-19T02:20:26;5.6;;;3.1;;
67429;SDS011;54298;52.076;5.264;2022-08-19T02:22:03;5.6;;;3.4;;
67429;SDS011;54298;52.076;5.264;2022-08-19T02:25:16;5.6;;;3.3;;
67429;SDS011;54298;52.076;5.264;2022-08-19T02:26:52;7.5;;;3.4;;
67429;SDS011;54298;52.076;5.264;2022-08-19T02:28:29;5.3;;;3.6;;
67429;SDS011;54298;52.076;5.264;2022-08-19T02:31:46;6.6;;;4.61;;
67429;SDS011;54298;52.076;5.264;2022-08-19T02:33:23;9.31;;;3.5;;
67429;SDS011;54298;52.076;5.264;2022-08-19T02:35:00;6.2;;;3.8;;
67429;SDS011;54298;52.076;5.264;2022-08-19T02:36:36;6.4;;;3.7;;
67429;SDS011;54298;52.076;5.264;2022-08-19T02:40:06;5.0;;;3.6;;
67429;SDS011;54298;52.076;5.264;2022-08-19T02:41:44;7.2;;;3.6;;
67429;SDS011;54298;52.076;5.264;2022-08-19T02:43:20;5.0;;;3.6;;
67429;SDS011;54298;52.076;5.264;2022-08-19T02:44:58;7.7;;;4.2;;
67429;SDS011;54298;52.076;5.264;2022-08-19T02:48:11;8.9;;;3.9;;
67429;SDS011;54298;52.076;5.264;2022-08-19T02:49:49;5.6;;;3.9;;
67429;SDS011;54298;52.076;5.264;2022-08-19T02:51:28;5.5;;;3.8;;
67429;SDS011;54298;52.076;5.264;2022-08-19T02:54:46;5.0;;;3.8;;
67429;SDS011;54298;52.076;5.264;2022-08-19T02:56:22;4.8;;;4.0;;
67429;SDS011;54298;52.076;5.264;2022-08-19T02:59:36;4.91;;;3.2;;
67429;SDS011;54298;52.076;5.264;2022-08-19T03:02:57;6.9;;;3.8;;
67429;SDS011;54298;52.076;5.264;2022-08-19T03:04:33;6.9;;;3.8;;
67429;SDS011;54298;52.076;5.264;2022-08-19T03:06:11;6.1;;;3.4;;
67429;SDS011;54298;52.076;5.264;2022-08-19T03:09:27;5.5;;;3.4;;
67429;SDS011;54298;52.076;5.264;2022-08-19T03:11:03;4.41;;;3.3;;
67429;SDS011;54298;52.076;5.264;2022-08-19T03:12:40;6.7;;;4.2;;
67429;SDS011;54298;52.076;5.264;2022-08-19T03:14:18;6.7;;;3.5;;
67429;SDS011;54298;52.076;5.264;2022-08-19T03:17:30;7.0;;;4.0;;
67429;SDS011;54298;52.076;5.264;2022-08-19T03:19:06;6.3;;;4.0;;
67429;SDS011;54298;52.076;5.264;2022-08-19T03:20:43;5.5;;;4.0;;
67429;SDS011;54298;52.076;5.264;2022-08-19T03:23:59;6.9;;;4.2;;
67429;SDS011;54298;52.076;5.264;2022-08-19T03:25:43;5.5;;;4.5;;
67429;SDS011;54298;52.076;5.264;2022-08-19T03:27:24;6.1;;;4.0;;
67429;SDS011;54298;52.076;5.264;2022-08-19T03:29:02;7.8;;;4.7;;
67429;SDS011;54298;52.076;5.264;2022-08-19T03:32:19;6.6;;;4.5;;
67429;SDS011;54298;52.076;5.264;2022-08-19T03:33:55;6.4;;;4.41;;
67429;SDS011;54298;52.076;5.264;2022-08-19T03:35:31;6.2;;;3.9;;
67429;SDS011;54298;52.076;5.264;2022-08-19T03:38:49;5.9;;;4.41;;
67429;SDS011;54298;52.076;5.264;2022-08-19T03:40:30;5.0;;;4.0;;
67429;SDS011;54298;52.076;5.264;2022-08-19T03:42:07;5.5;;;4.5;;
67429;SDS011;54298;52.076;5.264;2022-08-19T03:43:46;5.2;;;3.9;;
67429;SDS011;54298;52.076;5.264;2022-08-19T03:47:00;7.5;;;4.5;;
67429;SDS011;54298;52.076;5.264;2022-08-19T03:48:37;6.6;;;5.2;;
67429;SDS011;54298;52.076;5.264;2022-08-19T03:50:14;6.0;;;4.3;;
67429;SDS011;54298;52.076;5.264;2022-08-19T03:51:52;9.1;;;4.2;;
67429;SDS011;54298;52.076;5.264;2022-08-19T03:55:08;6.6;;;3.9;;
67429;SDS011;54298;52.076;5.264;2022-08-19T03:56:46;6.9;;;3.8;;
67429;SDS011;54298;52.076;5.264;2022-08-19T03:58:24;6.0;;;3.5;;
67429;SDS011;54298;52.076;5.264;2022-08-19T04:01:42;8.31;;;5.0;;
67429;SDS011;54298;52.076;5.264;2022-08-19T04:03:19;11.4;;;4.8;;
67429;SDS011;54298;52.076;5.264;2022-08-19T04:04:55;7.3;;;4.8;;
67429;SDS011;54298;52.076;5.264;2022-08-19T04:06:32;5.6;;;4.0;;
67429;SDS011;54298;52.076;5.264;2022-08-19T04:09:47;6.7;;;4.3;;
67429;SDS011;54298;52.076;5.264;2022-08-19T04:11:25;6.8;;;4.8;;
67429;SDS011;54298;52.076;5.264;2022-08-19T04:13:05;8.71;;;5.0;;
67429;SDS011;54298;52.076;5.264;2022-08-19T04:16:17;5.9;;;4.3;;
67429;SDS011;54298;52.076;5.264;2022-08-19T04:17:56;7.0;;;4.3;;
67429;SDS011;54298;52.076;5.264;2022-08-19T04:19:33;9.5;;;6.1;;
67429;SDS011;54298;52.076;5.264;2022-08-19T04:21:15;9.6;;;6.2;;
67429;SDS011;54298;52.076;5.264;2022-08-19T04:24:29;8.4;;;5.2;;
67429;SDS011;54298;52.076;5.264;2022-08-19T04:26:06;7.7;;;5.2;;
67429;SDS011;54298;52.076;5.264;2022-08-19T04:27:46;8.1;;;5.3;;
67429;SDS011;54298;52.076;5.264;2022-08-19T04:31:01;9.1;;;5.2;;
67429;SDS011;54298;52.076;5.264;2022-08-19T04:32:39;5.6;;;4.5;;
67429;SDS011;54298;52.076;5.264;2022-08-19T04:34:16;7.1;;;4.3;;
67429;SDS011;54298;52.076;5.264;2022-08-19T04:35:58;7.1;;;4.61;;
67429;SDS011;54298;52.076;5.264;2022-08-19T04:39:12;6.1;;;4.2;;
67429;SDS011;54298;52.076;5.264;2022-08-19T04:43:47;7.8;;;5.4;;
67429;SDS011;54298;52.076;5.264;2022-08-19T04:45:23;7.4;;;4.91;;
67429;SDS011;54298;52.076;5.264;2022-08-19T04:47:00;7.3;;;4.3;;
67429;SDS011;54298;52.076;5.264;2022-08-19T04:48:37;5.4;;;4.1;;
67429;SDS011;54298;52.076;5.264;2022-08-19T04:51:54;6.3;;;4.41;;
67429;SDS011;54298;52.076;5.264;2022-08-19T04:53:31;8.1;;;4.41;;
67429;SDS011;54298;52.076;5.264;2022-08-19T04:55:10;6.1;;;4.3;;
67429;SDS011;54298;52.076;5.264;2022-08-19T04:56:49;10.8;;;4.8;;
67429;SDS011;54298;52.076;5.264;2022-08-19T05:00:04;8.31;;;5.3;;
67429;SDS011;54298;52.076;5.264;2022-08-19T05:01:42;7.5;;;5.11;;
67429;SDS011;54298;52.076;5.264;2022-08-19T05:03:19;11.7;;;7.0;;
67429;SDS011;54298;52.076;5.264;2022-08-19T05:06:34;8.9;;;6.0;;
67429;SDS011;54298;52.076;5.264;2022-08-19T05:08:13;9.5;;;5.4;;
67429;SDS011;54298;52.076;5.264;2022-08-19T05:09:50;8.2;;;5.3;;
67429;SDS011;54298;52.076;5.264;2022-08-19T05:11:28;8.5;;;6.1;;
67429;SDS011;54298;52.076;5.264;2022-08-19T05:14:47;7.6;;;5.8;;
67429;SDS011;54298;52.076;5.264;2022-08-19T05:16:25;9.81;;;5.3;;
67429;SDS011;54298;52.076;5.264;2022-08-19T05:24:29;7.9;;;5.3;;
67429;SDS011;54298;52.076;5.264;2022-08-19T05:26:06;9.31;;;6.3;;
67429;SDS011;54298;52.076;5.264;2022-08-19T05:29:20;9.81;;;6.1;;
67429;SDS011;54298;52.076;5.264;2022-08-19T05:30:57;9.71;;;5.6;;
67429;SDS011;54298;52.076;5.264;2022-08-19T05:32:33;9.71;;;6.4;;
67429;SDS011;54298;52.076;5.264;2022-08-19T05:35:49;8.31;;;5.4;;
67429;SDS011;54298;52.076;5.264;2022-08-19T05:37:27;10.6;;;5.7;;
67429;SDS011;54298;52.076;5.264;2022-08-19T05:39:03;6.4;;;4.8;;
67429;SDS011;54298;52.076;5.264;2022-08-19T05:40:41;7.3;;;5.4;;
67429;SDS011;54298;52.076;5.264;2022-08-19T05:43:57;8.81;;;5.4;;
67429;SDS011;54298;52.076;5.264;2022-08-19T05:45:37;8.9;;;5.11;;
67429;SDS011;54298;52.076;5.264;2022-08-19T05:47:15;7.7;;;5.5;;
67429;SDS011;54298;52.076;5.264;2022-08-19T05:50:30;7.6;;;4.91;;
67429;SDS011;54298;52.076;5.264;2022-08-19T05:52:08;10.0;;;6.1;;
67429;SDS011;54298;52.076;5.264;2022-08-19T05:53:47;10.1;;;4.7;;
67429;SDS011;54298;52.076;5.264;2022-08-19T05:55:23;8.5;;;4.91;;
67429;SDS011;54298;52.076;5.264;2022-08-19T05:58:38;6.2;;;4.8;;
67429;SDS011;54298;52.076;5.264;2022-08-19T06:00:14;7.4;;;5.7;;
67429;SDS011;54298;52.076;5.264;2022-08-19T06:01:54;9.1;;;6.2;;
67429;SDS011;54298;52.076;5.264;2022-08-19T06:05:09;9.81;;;7.0;;
67429;SDS011;54298;52.076;5.264;2022-08-19T06:06:47;12.7;;;9.31;;
67429;SDS011;54298;52.076;5.264;2022-08-19T06:08:24;10.5;;;8.9;;
67429;SDS011;54298;52.076;5.264;2022-08-19T06:10:02;14.9;;;7.5;;
67429;SDS011;54298;52.076;5.264;2022-08-19T06:13:20;12.3;;;6.3;;
67429;SDS011;54298;52.076;5.264;2022-08-19T06:14:57;7.1;;;4.91;;
67429;SDS011;54298;52.076;5.264;2022-08-19T06:16:36;9.5;;;5.7;;
67429;SDS011;54298;52.076;5.264;2022-08-19T06:18:14;6.8;;;5.2;;
67429;SDS011;54298;52.076;5.264;2022-08-19T06:21:29;6.7;;;4.91;;
67429;SDS011;54298;52.076;5.264;2022-08-19T06:23:06;18.7;;;12.8;;
67429;SDS011;54298;52.076;5.264;2022-08-19T06:24:43;44.1;;;30.3;;
67429;SDS011;54298;52.076;5.264;2022-08-19T06:27:57;44.0;;;28.9;;
67429;SDS011;54298;52.076;5.264;2022-08-19T06:29:35;20.0;;;14.2;;
67429;SDS011;54298;52.076;5.264;2022-08-19T06:31:14;27.5;;;21.4;;
67429;SDS011;54298;52.076;5.264;2022-08-19T06:32:52;14.5;;;10.5;;
67429;SDS011;54298;52.076;5.264;2022-08-19T06:36:15;12.5;;;8.6;;
67429;SDS011;54298;52.076;5.264;2022-08-19T06:37:54;34.81;;;23.4;;
67429;SDS011;54298;52.076;5.264;2022-08-19T06:39:31;60.4;;;38.9;;
67429;SDS011;54298;52.076;5.264;2022-08-19T06:41:14;63.6;;;44.6;;
67429;SDS011;54298;52.076;5.264;2022-08-19T06:44:27;56.3;;;33.8;;
67429;SDS011;54298;52.076;5.264;2022-08-19T06:46:10;76.41;;;50.5;;
67429;SDS011;54298;52.076;5.264;2022-08-19T06:47:48;89.0;;;55.7;;
67429;SDS011;54298;52.076;5.264;2022-08-19T06:51:08;79.8;;;50.9;;
67429;SDS011;54298;52.076;5.264;2022-08-19T06:52:44;77.0;;;45.4;;
67429;SDS011;54298;52.076;5.264;2022-08-19T06:54:20;71.41;;;44.7;;
67429;SDS011;54298;52.076;5.264;2022-08-19T06:56:00;71.91;;;45.4;;
67429;SDS011;54298;52.076;5.264;2022-08-19T06:59:13;71.3;;;50.2;;
67429;SDS011;54298;52.076;5.264;2022-08-19T07:01:01;73.61;;;46.4;;
67429;SDS011;54298;52.076;5.264;2022-08-19T07:02:39;64.0;;;42.9;;
67429;SDS011;54298;52.076;5.264;2022-08-19T07:04:17;85.5;;;59.6;;
67429;SDS011;54298;52.076;5.264;2022-08-19T07:07:34;77.3;;;52.3;;
67429;SDS011;54298;52.076;5.264;2022-08-19T07:09:12;61.6;;;37.31;;
67429;SDS011;54298;52.076;5.264;2022-08-19T07:10:53;63.8;;;43.3;;
67429;SDS011;54298;52.076;5.264;2022-08-19T07:14:07;61.9;;;41.0;;
67429;SDS011;54298;52.076;5.264;2022-08-19T07:15:46;61.4;;;42.0;;
67429;SDS011;54298;52.076;5.264;2022-08-19T07:17:22;61.2;;;44.7;;
67429;SDS011;54298;52.076;5.264;2022-08-19T07:18:59;62.6;;;43.2;;
67429;SDS011;54298;52.076;5.264;2022-08-19T07:22:14;63.2;;;45.1;;
67429;SDS011;54298;52.076;5.264;2022-08-19T07:23:51;57.2;;;40.1;;
67429;SDS011;54298;52.076;5.264;2022-08-19T07:25:28;62.9;;;46.0;;
67429;SDS011;54298;52.076;5.264;2022-08-19T07:28:43;62.5;;;41.5;;
67429;SDS011;54298;52.076;5.264;2022-08-19T07:30:23;60.2;;;43.2;;
67429;SDS011;54298;52.076;5.264;2022-08-19T07:31:59;63.0;;;42.8;;
67429;SDS011;54298;52.076;5.264;2022-08-19T07:33:37;62.2;;;44.4;;
67429;SDS011;54298;52.076;5.264;2022-08-19T07:36:50;63.4;;;46.9;;
67429;SDS011;54298;52.076;5.264;2022-08-19T07:38:28;75.0;;;52.9;;
67429;SDS011;54298;52.076;5.264;2022-08-19T07:40:05;65.2;;;43.3;;
67429;SDS011;54298;52.076;5.264;2022-08-19T07:43:25;66.7;;;45.3;;
67429;SDS011;54298;52.076;5.264;2022-08-19T07:45:03;58.4;;;43.9;;
67429;SDS011;54298;52.076;5.264;2022-08-19T07:46:45;52.2;;;37.71;;
67429;SDS011;54298;52.076;5.264;2022-08-19T07:48:28;53.4;;;38.21;;
67429;SDS011;54298;52.076;5.264;2022-08-19T07:51:47;50.4;;;33.3;;
67429;SDS011;54298;52.076;5.264;2022-08-19T07:53:25;44.2;;;31.6;;
67429;SDS011;54298;52.076;5.264;2022-08-19T07:55:04;48.2;;;33.9;;
67429;SDS011;54298;52.076;5.264;2022-08-19T07:56:42;44.3;;;28.2;;
67429;SDS011;54298;52.076;5.264;2022-08-19T07:59:58;47.0;;;33.21;;
67429;SDS011;54298;52.076;5.264;2022-08-19T08:01:35;50.4;;;35.21;;
67429;SDS011;54298;52.076;5.264;2022-08-19T08:03:13;59.3;;;40.6;;
67429;SDS011;54298;52.076;5.264;2022-08-19T08:09:29;41.7;;;28.9;;
67429;SDS011;54298;52.076;5.264;2022-08-19T08:11:09;38.4;;;25.6;;
67429;SDS011;54298;52.076;5.264;2022-08-19T08:12:46;43.9;;;30.8;;
67429;SDS011;54298;52.076;5.264;2022-08-19T08:14:23;42.2;;;28.8;;
67429;SDS011;54298;52.076;5.264;2022-08-19T08:16:03;36.21;;;25.3;;
67429;SDS011;54298;52.076;5.264;2022-08-19T08:17:40;41.0;;;29.2;;
67429;SDS011;54298;52.076;5.264;2022-08-19T08:20:57;37.6;;;24.8;;
67429;SDS011;54298;52.076;5.264;2022-08-19T08:23:38;37.1;;;27.4;;
67429;SDS011;54298;52.076;5.264;2022-08-19T08:25:15;38.6;;;25.7;;
67429;SDS011;54298;52.076;5.264;2022-08-19T08:26:56;35.71;;;28.1;;
67429;SDS011;54298;52.076;5.264;2022-08-19T08:28:35;47.5;;;33.9;;
67429;SDS011;54298;52.076;5.264;2022-08-19T08:30:13;50.9;;;35.1;;
67429;SDS011;54298;52.076;5.264;2022-08-19T08:33:30;39.81;;;27.9;;
67429;SDS011;54298;52.076;5.264;2022-08-19T08:35:08;39.31;;;27.4;;
67429;SDS011;54298;52.076;5.264;2022-08-19T08:36:48;39.0;;;27.6;;
67429;SDS011;54298;52.076;5.264;2022-08-19T08:38:25;43.0;;;30.5;;
67429;SDS011;54298;52.076;5.264;2022-08-19T08:41:44;44.0;;;31.0;;
67429;SDS011;54298;52.076;5.264;2022-08-19T08:43:33;47.3;;;37.81;;
67429;SDS011;54298;52.076;5.264;2022-08-19T08:45:15;40.71;;;27.6;;
67429;SDS011;54298;52.076;5.264;2022-08-19T08:46:55;43.4;;;31.7;;
67429;SDS011;54298;52.076;5.264;2022-08-19T08:50:21;43.4;;;31.7;;
67429;SDS011;54298;52.076;5.264;2022-08-19T08:52:05;39.9;;;28.7;;
67429;SDS011;54298;52.076;5.264;2022-08-19T08:53:48;45.2;;;32.0;;
67429;SDS011;54298;52.076;5.264;2022-08-19T08:55:27;42.6;;;30.2;;
67429;SDS011;54298;52.076;5.264;2022-08-19T08:58:57;33.4;;;24.9;;
67429;SDS011;54298;52.076;5.264;2022-08-19T09:00:38;43.8;;;28.4;;
67429;SDS011;54298;52.076;5.264;2022-08-19T09:02:20;38.1;;;28.8;;
67429;SDS011;54298;52.076;5.264;2022-08-19T09:03:56;33.1;;;24.2;;
67429;SDS011;54298;52.076;5.264;2022-08-19T09:07:30;37.81;;;26.4;;
67429;SDS011;54298;52.076;5.264;2022-08-19T09:09:32;32.4;;;25.5;;
67429;SDS011;54298;52.076;5.264;2022-08-19T09:11:15;34.81;;;23.3;;
67429;SDS011;54298;52.076;5.264;2022-08-19T09:13:08;33.3;;;24.4;;
67429;SDS011;54298;52.076;5.264;2022-08-19T09:15:02;34.6;;;24.6;;
67429;SDS011;54298;52.076;5.264;2022-08-19T09:16:41;30.6;;;22.4;;
67429;SDS011;54298;52.076;5.264;2022-08-19T09:18:18;30.1;;;22.3;;
67429;SDS011;54298;52.076;5.264;2022-08-19T09:21:35;28.9;;;20.0;;
67429;SDS011;54298;52.076;5.264;2022-08-19T09:23:11;30.0;;;22.1;;
67429;SDS011;54298;52.076;5.264;2022-08-19T09:24:48;25.4;;;19.5;;
67429;SDS011;54298;52.076;5.264;2022-08-19T09:28:03;24.3;;;18.41;;
67429;SDS011;54298;52.076;5.264;2022-08-19T09:29:39;26.8;;;20.41;;
67429;SDS011;54298;52.076;5.264;2022-08-19T09:31:16;27.3;;;20.0;;
67429;SDS011;54298;52.076;5.264;2022-08-19T09:33:00;28.5;;;21.7;;
67429;SDS011;54298;52.076;5.264;2022-08-19T09:36:14;32.6;;;24.2;;
67429;SDS011;54298;52.076;5.264;2022-08-19T09:37:54;35.1;;;26.7;;
67429;SDS011;54298;52.076;5.264;2022-08-19T09:39:31;29.0;;;24.2;;
67429;SDS011;54298;52.076;5.264;2022-08-19T09:41:08;31.8;;;23.9;;
67429;SDS011;54298;52.076;5.264;2022-08-19T09:44:24;27.4;;;21.2;;
67429;SDS011;54298;52.076;5.264;2022-08-19T09:46:00;25.5;;;20.9;;
67429;SDS011;54298;52.076;5.264;2022-08-19T09:47:38;28.8;;;22.9;;
67429;SDS011;54298;52.076;5.264;2022-08-19T09:50:52;26.8;;;21.6;;
67429;SDS011;54298;52.076;5.264;2022-08-19T09:52:28;29.7;;;20.41;;
67429;SDS011;54298;52.076;5.264;2022-08-19T09:54:04;26.8;;;19.3;;
67429;SDS011;54298;52.076;5.264;2022-08-19T09:57:18;31.6;;;23.3;;
67429;SDS011;54298;52.076;5.264;2022-08-19T09:58:54;30.0;;;23.8;;
67429;SDS011;54298;52.076;5.264;2022-08-19T10:00:30;31.5;;;22.8;;
67429;SDS011;54298;52.076;5.264;2022-08-19T10:02:09;33.5;;;23.5;;
67429;SDS011;54298;52.076;5.264;2022-08-19T10:05:53;28.3;;;23.3;;
67429;SDS011;54298;52.076;5.264;2022-08-19T10:07:35;31.5;;;23.7;;
67429;SDS011;54298;52.076;5.264;2022-08-19T10:09:13;31.5;;;23.7;;
67429;SDS011;54298;52.076;5.264;2022-08-19T10:10:50;35.31;;;28.2;;
67429;SDS011;54298;52.076;5.264;2022-08-19T10:14:05;35.9;;;27.1;;
67429;SDS011;54298;52.076;5.264;2022-08-19T10:15:43;34.31;;;25.7;;
67429;SDS011;54298;52.076;5.264;2022-08-19T10:17:20;34.1;;;26.0;;
67429;SDS011;54298;52.076;5.264;2022-08-19T10:18:57;36.21;;;29.1;;
67429;SDS011;54298;52.076;5.264;2022-08-19T10:22:13;35.1;;;28.5;;
67429;SDS011;54298;52.076;5.264;2022-08-19T10:23:51;35.31;;;29.3;;
67429;SDS011;54298;52.076;5.264;2022-08-19T10:25:31;39.4;;;30.7;;
67429;SDS011;54298;52.076;5.264;2022-08-19T10:27:09;35.5;;;27.5;;
67429;SDS011;54298;52.076;5.264;2022-08-19T10:30:23;35.1;;;29.3;;
67429;SDS011;54298;52.076;5.264;2022-08-19T10:32:00;38.71;;;30.8;;
67429;SDS011;54298;52.076;5.264;2022-08-19T10:33:38;58.7;;;47.9;;
67429;SDS011;54298;52.076;5.264;2022-08-19T10:36:52;42.0;;;32.5;;
67429;SDS011;54298;52.076;5.264;2022-08-19T10:38:28;50.5;;;39.31;;
67429;SDS011;54298;52.076;5.264;2022-08-19T10:40:06;64.0;;;47.8;;
67429;SDS011;54298;52.076;5.264;2022-08-19T10:43:20;65.2;;;50.4;;
67429;SDS011;54298;52.076;5.264;2022-08-19T10:44:57;40.0;;;32.0;;
67429;SDS011;54298;52.076;5.264;2022-08-19T10:46:35;44.4;;;33.6;;
67429;SDS011;54298;52.076;5.264;2022-08-19T10:48:16;44.7;;;31.3;;
67429;SDS011;54298;52.076;5.264;2022-08-19T10:52:46;43.8;;;34.6;;
67429;SDS011;54298;52.076;5.264;2022-08-19T10:56:50;44.9;;;32.6;;
67429;SDS011;54298;52.076;5.264;2022-08-19T10:58:26;40.71;;;31.3;;
67429;SDS011;54298;52.076;5.264;2022-08-19T11:00:03;35.9;;;29.1;;
67429;SDS011;54298;52.076;5.264;2022-08-19T11:01:40;47.2;;;34.1;;
67429;SDS011;54298;52.076;5.264;2022-08-19T11:03:19;88.1;;;59.9;;
67429;SDS011;54298;52.076;5.264;2022-08-19T11:04:56;40.4;;;29.8;;
67429;SDS011;54298;52.076;5.264;2022-08-19T11:08:11;40.4;;;29.8;;
67429;SDS011;54298;52.076;5.264;2022-08-19T11:09:47;47.8;;;35.71;;
67429;SDS011;54298;52.076;5.264;2022-08-19T11:11:24;45.7;;;34.9;;
67429;SDS011;54298;52.076;5.264;2022-08-19T11:14:36;41.8;;;31.3;;
67429;SDS011;54298;52.076;5.264;2022-08-19T11:16:14;43.1;;;34.1;;
67429;SDS011;54298;52.076;5.264;2022-08-19T11:17:54;44.9;;;32.6;;
67429;SDS011;54298;52.076;5.264;2022-08-19T11:19:32;46.1;;;34.9;;
67429;SDS011;54298;52.076;5.264;2022-08-19T11:22:49;45.4;;;32.9;;
67429;SDS011;54298;52.076;5.264;2022-08-19T11:24:27;42.6;;;31.0;;
67429;SDS011;54298;52.076;5.264;2022-08-19T11:26:04;44.9;;;32.3;;
67429;SDS011;54298;52.076;5.264;2022-08-19T11:29:19;107.4;;;75.8;;
67429;SDS011;54298;52.076;5.264;2022-08-19T11:30:57;109.0;;;80.0;;
67429;SDS011;54298;52.076;5.264;2022-08-19T11:32:36;67.2;;;53.4;;
67429;SDS011;54298;52.076;5.264;2022-08-19T11:37:37;41.2;;;31.0;;
67429;SDS011;54298;52.076;5.264;2022-08-19T11:39:14;34.9;;;27.7;;
67429;SDS011;54298;52.076;5.264;2022-08-19T11:40:54;36.9;;;27.9;;
67429;SDS011;54298;52.076;5.264;2022-08-19T11:43:04;31.1;;;23.4;;
67429;SDS011;54298;52.076;5.264;2022-08-19T11:44:40;31.5;;;25.7;;
67429;SDS011;54298;52.076;5.264;2022-08-19T11:47:53;30.5;;;25.3;;
67429;SDS011;54298;52.076;5.264;2022-08-19T11:49:31;36.0;;;26.9;;
67429;SDS011;54298;52.076;5.264;2022-08-19T11:51:09;33.21;;;27.8;;
67429;SDS011;54298;52.076;5.264;2022-08-19T11:54:30;33.21;;;25.9;;
67429;SDS011;54298;52.076;5.264;2022-08-19T11:56:07;40.0;;;30.4;;
67429;SDS011;54298;52.076;5.264;2022-08-19T11:57:46;35.71;;;29.9;;
67429;SDS011;54298;52.076;5.264;2022-08-19T11:59:22;39.71;;;32.0;;
67429;SDS011;54298;52.076;5.264;2022-08-19T12:02:35;41.1;;;28.8;;
67429;SDS011;54298;52.076;5.264;2022-08-19T12:04:12;31.8;;;25.0;;
67429;SDS011;54298;52.076;5.264;2022-08-19T12:05:48;33.8;;;26.6;;
67429;SDS011;54298;52.076;5.264;2022-08-19T12:09:05;36.6;;;27.3;;
67429;SDS011;54298;52.076;5.264;2022-08-19T12:10:42;33.1;;;26.5;;
67429;SDS011;54298;52.076;5.264;2022-08-19T12:12:19;34.1;;;25.9;;
67429;SDS011;54298;52.076;5.264;2022-08-19T12:13:56;30.1;;;24.2;;
67429;SDS011;54298;52.076;5.264;2022-08-19T12:17:11;28.8;;;23.6;;
67429;SDS011;54298;52.076;5.264;2022-08-19T12:18:50;28.5;;;23.4;;
67429;SDS011;54298;52.076;5.264;2022-08-19T12:20:27;27.2;;;21.8;;
67429;SDS011;54298;52.076;5.264;2022-08-19T12:23:41;30.0;;;23.0;;
67429;SDS011;54298;52.076;5.264;2022-08-19T12:25:19;25.8;;;18.2;;
67429;SDS011;54298;52.076;5.264;2022-08-19T12:26:56;26.2;;;18.41;;
67429;SDS011;54298;52.076;5.264;2022-08-19T12:28:33;21.6;;;17.3;;
67429;SDS011;54298;52.076;5.264;2022-08-19T12:31:49;26.0;;;19.3;;
67429;SDS011;54298;52.076;5.264;2022-08-19T12:33:25;28.4;;;21.2;;
67429;SDS011;54298;52.076;5.264;2022-08-19T12:35:04;30.2;;;20.11;;
67429;SDS011;54298;52.076;5.264;2022-08-19T12:38:18;25.8;;;18.5;;
67429;SDS011;54298;52.076;5.264;2022-08-19T12:39:56;21.4;;;15.8;;
67429;SDS011;54298;52.076;5.264;2022-08-19T12:41:33;25.9;;;16.0;;
67429;SDS011;54298;52.076;5.264;2022-08-19T12:43:09;20.7;;;13.3;;
67429;SDS011;54298;52.076;5.264;2022-08-19T12:46:21;17.0;;;11.9;;
67429;SDS011;54298;52.076;5.264;2022-08-19T12:47:57;15.6;;;10.21;;
67429;SDS011;54298;52.076;5.264;2022-08-19T12:49:37;16.3;;;11.2;;
67429;SDS011;54298;52.076;5.264;2022-08-19T12:52:53;13.5;;;9.6;;
67429;SDS011;54298;52.076;5.264;2022-08-19T12:54:30;14.5;;;9.71;;
67429;SDS011;54298;52.076;5.264;2022-08-19T12:56:09;11.6;;;7.9;;
67429;SDS011;54298;52.076;5.264;2022-08-19T12:57:48;14.1;;;8.5;;
67429;SDS011;54298;52.076;5.264;2022-08-19T13:01:05;12.7;;;7.6;;
67429;SDS011;54298;52.076;5.264;2022-08-19T13:02:46;14.7;;;5.9;;